createdAt,value
2017-07-25T00:02:09.216Z,20.43
2017-07-25T00:04:38.255Z,21.10
2017-07-25T00:07:07.324Z,19.37
2017-07-25T00:09:36.375Z,19.60
2017-07-25T00:12:05.636Z,20.00
2017-07-25T00:14:34.689Z,21.27
2017-07-25T00:17:03.765Z,19.70
2017-07-25T00:19:32.851Z,21.87
2017-07-25T00:22:01.893Z,22.50
2017-07-25T00:24:30.972Z,22.00
2017-07-25T00:27:00.069Z,21.60
2017-07-25T00:29:29.119Z,22.03
2017-07-25T00:31:58.186Z,21.77
2017-07-25T00:34:27.247Z,22.10
2017-07-25T00:36:56.316Z,22.70
2017-07-25T00:39:25.357Z,21.40
2017-07-25T00:41:54.444Z,23.67
2017-07-25T00:44:23.479Z,21.60
2017-07-25T00:46:52.539Z,21.57
2017-07-25T00:49:21.600Z,21.67
2017-07-25T00:51:50.665Z,23.70
2017-07-25T00:54:19.741Z,24.07
2017-07-25T00:56:48.788Z,21.90
2017-07-25T00:59:17.853Z,20.97
2017-07-25T01:01:46.915Z,21.60
2017-07-25T01:04:15.981Z,21.90
2017-07-25T01:06:45.059Z,24.80
2017-07-25T01:09:14.108Z,23.93
2017-07-25T01:11:43.160Z,22.60
2017-07-25T01:14:12.266Z,23.60
2017-07-25T01:16:41.463Z,26.27
2017-07-25T01:19:10.528Z,25.70
2017-07-25T01:21:39.595Z,25.13
2017-07-25T01:24:08.671Z,23.27
2017-07-25T01:26:37.710Z,22.30
2017-07-25T01:29:06.789Z,24.10
2017-07-25T01:31:35.859Z,24.50
2017-07-25T01:34:04.928Z,23.37
2017-07-25T01:36:33.995Z,25.40
2017-07-25T01:39:03.098Z,23.73
2017-07-25T01:41:32.159Z,23.80
2017-07-25T01:44:01.228Z,25.17
2017-07-25T01:46:30.309Z,25.50
2017-07-25T01:48:59.361Z,25.20
2017-07-25T01:51:28.424Z,26.20
2017-07-25T01:53:57.477Z,25.30
2017-07-25T01:56:26.590Z,25.07
2017-07-25T01:58:55.652Z,25.27
2017-07-25T02:01:24.716Z,26.20
2017-07-25T02:03:53.800Z,27.17
2017-07-25T02:06:22.880Z,27.33
2017-07-25T02:08:51.932Z,25.63
2017-07-25T02:11:21.002Z,27.33
2017-07-25T02:13:50.084Z,28.60
2017-07-25T02:16:19.116Z,26.50
2017-07-25T02:18:48.196Z,27.80
2017-07-25T02:21:17.277Z,25.47
2017-07-25T02:23:46.315Z,26.03
2017-07-25T02:26:15.395Z,23.90
2017-07-25T02:28:44.445Z,24.13
2017-07-25T02:31:13.535Z,24.20
2017-07-25T02:33:42.607Z,27.13
2017-07-25T02:36:11.678Z,26.67
2017-07-25T02:38:40.717Z,29.97
2017-07-25T02:41:09.788Z,27.77
2017-07-25T02:43:38.820Z,28.17
2017-07-25T02:46:07.931Z,27.07
2017-07-25T02:48:36.964Z,29.40
2017-07-25T02:51:06.222Z,27.67
2017-07-25T02:53:35.349Z,24.40
2017-07-25T02:56:04.533Z,24.40
2017-07-25T02:58:33.570Z,24.80
2017-07-25T03:01:02.661Z,24.67
2017-07-25T03:03:31.720Z,23.73
2017-07-25T03:06:00.795Z,23.33
2017-07-25T03:08:29.844Z,21.77
2017-07-25T03:10:58.908Z,21.17
2017-07-25T03:13:27.969Z,21.50
2017-07-25T03:15:57.015Z,22.03
2017-07-25T03:18:26.089Z,21.70
2017-07-25T03:20:55.341Z,21.00
2017-07-25T03:23:42.035Z,20.23
2017-07-25T03:26:11.124Z,20.17
2017-07-25T03:28:40.200Z,21.00
2017-07-25T03:31:09.267Z,19.87
2017-07-25T03:33:38.318Z,18.87
2017-07-25T03:36:07.384Z,17.47
2017-07-25T03:38:36.463Z,18.97
2017-07-25T03:41:05.605Z,18.93
2017-07-25T03:43:34.643Z,17.57
2017-07-25T03:46:03.684Z,20.50
2017-07-25T03:48:32.750Z,18.03
2017-07-25T03:51:01.862Z,18.90
2017-07-25T03:53:30.911Z,17.70
2017-07-25T03:55:59.982Z,18.03
2017-07-25T03:58:29.039Z,19.40
2017-07-25T04:00:58.098Z,18.00
2017-07-25T04:03:27.144Z,20.20
2017-07-25T04:05:56.232Z,21.90
2017-07-25T04:08:25.286Z,21.77
2017-07-25T04:10:54.367Z,23.07
2017-07-25T04:13:23.427Z,22.87
2017-07-25T04:15:52.488Z,22.07
2017-07-25T04:18:21.542Z,23.83
2017-07-25T04:20:50.616Z,23.57
2017-07-25T04:23:19.671Z,24.40
2017-07-25T04:25:48.710Z,22.30
2017-07-25T04:28:17.784Z,23.00
2017-07-25T04:30:46.820Z,21.27
2017-07-25T04:33:15.924Z,21.87
2017-07-25T04:35:44.976Z,23.10
2017-07-25T04:38:14.071Z,21.47
2017-07-25T04:40:43.153Z,22.23
2017-07-25T04:43:12.204Z,21.90
2017-07-25T04:45:41.277Z,22.07
2017-07-25T04:48:10.383Z,20.70
2017-07-25T04:50:39.436Z,23.13
2017-07-25T04:53:08.495Z,22.60
2017-07-25T04:55:37.546Z,24.50
2017-07-25T04:58:06.671Z,23.57
2017-07-25T05:00:35.768Z,23.53
2017-07-25T05:03:04.831Z,23.80
2017-07-25T05:05:33.897Z,24.90
2017-07-25T05:08:03.043Z,25.17
2017-07-25T05:10:32.132Z,22.73
2017-07-25T05:13:01.186Z,23.27
2017-07-25T05:15:30.399Z,23.90
2017-07-25T05:18:05.413Z,23.47
2017-07-25T05:20:34.471Z,21.67
2017-07-25T05:23:03.564Z,22.07
2017-07-25T05:25:32.588Z,23.47
2017-07-25T05:28:01.754Z,22.20
2017-07-25T05:30:30.815Z,22.90
2017-07-25T05:32:59.851Z,21.10
2017-07-25T05:35:28.911Z,21.93
2017-07-25T05:37:57.970Z,20.67
2017-07-25T05:40:27.035Z,21.60
2017-07-25T05:42:56.113Z,22.17
2017-07-25T05:45:25.208Z,21.67
2017-07-25T05:47:54.259Z,21.87
2017-07-25T05:50:23.318Z,19.73
2017-07-25T05:52:52.368Z,20.80
2017-07-25T05:55:21.436Z,18.90
2017-07-25T05:57:50.494Z,21.57
2017-07-25T06:00:19.564Z,18.87
2017-07-25T06:02:48.650Z,21.07
2017-07-25T06:05:17.723Z,20.30
2017-07-25T06:07:46.783Z,21.50
2017-07-25T06:10:15.835Z,19.07
2017-07-25T06:12:44.907Z,21.30
2017-07-25T06:15:13.972Z,22.20
2017-07-25T06:17:43.020Z,23.27
2017-07-25T06:20:12.116Z,23.13
2017-07-25T06:22:41.177Z,22.67
2017-07-25T06:25:10.232Z,24.60
2017-07-25T06:27:39.308Z,22.00
2017-07-25T06:30:08.395Z,24.70
2017-07-25T06:32:37.420Z,24.37
2017-07-25T06:35:06.524Z,23.87
2017-07-25T06:37:35.604Z,24.03
2017-07-25T06:40:04.646Z,24.03
2017-07-25T06:42:33.708Z,23.27
2017-07-25T06:45:02.837Z,21.80
2017-07-25T06:47:31.849Z,21.00
2017-07-25T06:50:00.921Z,21.90
2017-07-25T06:52:29.961Z,21.73
2017-07-25T06:54:59.227Z,22.60
2017-07-25T06:57:28.295Z,23.30
2017-07-25T06:59:57.374Z,24.17
2017-07-25T07:02:26.448Z,23.37
2017-07-25T07:04:55.500Z,21.27
2017-07-25T07:07:24.576Z,23.17
2017-07-25T07:09:53.638Z,22.67
2017-07-25T07:12:22.684Z,20.13
2017-07-25T07:14:51.751Z,21.53
2017-07-25T07:17:20.814Z,20.57
2017-07-25T07:19:49.880Z,20.33
2017-07-25T07:22:18.951Z,20.70
2017-07-25T07:24:48.007Z,21.70
2017-07-25T07:27:17.104Z,21.73
2017-07-25T07:29:46.142Z,21.90
2017-07-25T07:32:15.243Z,22.40
2017-07-25T07:34:44.316Z,25.63
2017-07-25T07:37:13.479Z,24.27
2017-07-25T07:39:42.551Z,23.57
2017-07-25T07:42:11.667Z,21.90
2017-07-25T07:44:40.746Z,21.63
2017-07-25T07:47:09.817Z,19.00
2017-07-25T07:49:38.859Z,17.70
2017-07-25T07:52:08.781Z,16.73
2017-07-25T07:54:37.928Z,14.27
2017-07-25T07:57:06.992Z,14.17
2017-07-25T07:59:36.042Z,13.27
2017-07-25T08:02:05.096Z,11.27
2017-07-25T08:04:34.596Z,12.40
2017-07-25T08:07:03.646Z,13.33
2017-07-25T08:09:32.750Z,14.07
2017-07-25T08:12:01.886Z,11.87
2017-07-25T08:14:30.966Z,13.13
2017-07-25T08:17:00.081Z,12.70
2017-07-25T08:19:29.119Z,14.23
2017-07-25T08:21:58.183Z,14.07
2017-07-25T08:24:27.280Z,14.87
2017-07-25T08:26:56.345Z,14.50
2017-07-25T08:29:25.410Z,10.40
2017-07-25T08:31:54.466Z,8.83
2017-07-25T08:34:23.635Z,9.90
2017-07-25T08:36:52.716Z,6.80
2017-07-25T08:39:21.765Z,7.70
2017-07-25T08:41:50.810Z,7.60
2017-07-25T08:44:19.883Z,7.53
2017-07-25T08:46:49.023Z,8.30
2017-07-25T08:49:18.041Z,8.13
2017-07-25T08:51:47.104Z,8.43
2017-07-25T08:54:16.185Z,9.10
2017-07-25T08:56:45.255Z,9.50
2017-07-25T08:59:14.314Z,9.90
2017-07-25T09:01:43.378Z,8.80
2017-07-25T09:04:14.147Z,9.50
2017-07-25T09:06:43.216Z,11.00
2017-07-25T09:09:12.329Z,11.70
2017-07-25T09:11:41.403Z,11.80
2017-07-25T09:14:10.455Z,13.10
2017-07-25T09:16:39.502Z,13.40
2017-07-25T09:19:08.566Z,15.23
2017-07-25T09:21:38.503Z,13.87
2017-07-25T09:24:07.545Z,15.23
2017-07-25T09:26:36.604Z,17.20
2017-07-25T09:29:05.708Z,18.93
2017-07-25T09:31:34.744Z,22.70
2017-07-25T09:34:03.807Z,21.37
2017-07-25T09:36:32.982Z,23.67
2017-07-25T09:39:02.009Z,25.77
2017-07-25T09:41:31.097Z,23.07
2017-07-25T09:44:00.155Z,22.73
2017-07-25T09:46:29.199Z,23.63
2017-07-25T09:48:58.308Z,20.00
2017-07-25T09:51:27.372Z,16.57
2017-07-25T09:53:56.450Z,19.40
2017-07-25T09:56:25.528Z,17.53
2017-07-25T09:58:54.593Z,17.00
2017-07-25T10:01:23.658Z,16.13
2017-07-25T10:03:52.703Z,18.63
2017-07-25T10:06:21.768Z,16.20
2017-07-25T10:08:50.868Z,16.10
2017-07-25T10:11:19.919Z,15.47
2017-07-25T10:13:49.002Z,15.20
2017-07-25T10:16:18.115Z,15.43
2017-07-25T10:18:47.223Z,16.60
2017-07-25T10:21:16.315Z,17.93
2017-07-25T10:23:45.367Z,16.90
2017-07-25T10:26:14.481Z,15.97
2017-07-25T10:28:43.583Z,15.70
2017-07-25T10:31:12.690Z,17.50
2017-07-25T10:33:41.731Z,16.00
2017-07-25T10:36:10.795Z,17.50
2017-07-25T10:38:39.887Z,15.00
2017-07-25T10:41:08.976Z,16.00
2017-07-25T10:43:38.970Z,14.97
2017-07-25T10:46:08.026Z,14.63
2017-07-25T10:48:37.088Z,13.60
2017-07-25T10:51:06.187Z,14.10
2017-07-25T10:53:35.261Z,14.03
2017-07-25T10:56:04.355Z,15.70
2017-07-25T10:58:33.384Z,14.20
2017-07-25T11:01:02.446Z,14.57
2017-07-25T11:03:31.543Z,15.00
2017-07-25T11:06:00.604Z,14.53
2017-07-25T11:08:29.643Z,15.50
2017-07-25T11:10:58.726Z,14.83
2017-07-25T11:13:27.798Z,15.60
2017-07-25T11:15:56.856Z,15.00
2017-07-25T11:18:25.916Z,13.50
2017-07-25T11:20:54.979Z,13.63
2017-07-25T11:23:24.080Z,15.20
2017-07-25T11:25:53.148Z,15.73
2017-07-25T11:28:22.205Z,14.83
2017-07-25T11:30:51.307Z,15.93
2017-07-25T11:33:20.354Z,17.27
2017-07-25T11:35:49.395Z,15.73
2017-07-25T11:38:18.499Z,15.17
2017-07-25T11:40:47.559Z,13.60
2017-07-25T11:43:16.971Z,13.97
2017-07-25T11:45:46.015Z,15.50
2017-07-25T11:48:15.100Z,13.47
2017-07-25T11:50:44.176Z,13.43
2017-07-25T11:53:13.261Z,16.37
2017-07-25T11:55:42.360Z,15.87
2017-07-25T11:58:11.396Z,16.13
2017-07-25T12:00:40.503Z,15.33
2017-07-25T12:03:09.563Z,15.33
2017-07-25T12:05:38.642Z,15.50
2017-07-25T12:08:07.727Z,16.00
2017-07-25T12:10:36.768Z,15.13
2017-07-25T12:13:05.883Z,15.13
2017-07-25T12:15:34.924Z,16.67
2017-07-25T12:18:03.968Z,14.53
2017-07-25T12:20:33.285Z,15.07
2017-07-25T12:23:02.335Z,18.20
2017-07-25T12:25:31.383Z,17.67
2017-07-25T12:28:00.457Z,15.20
2017-07-25T12:30:29.512Z,17.07
2017-07-25T12:32:58.591Z,15.37
2017-07-25T12:35:27.660Z,12.70
2017-07-25T12:37:56.748Z,12.90
2017-07-25T12:40:25.807Z,17.20
2017-07-25T12:42:54.894Z,13.67
2017-07-25T12:45:23.964Z,14.77
2017-07-25T12:47:53.027Z,14.57
2017-07-25T12:50:22.169Z,13.83
2017-07-25T12:52:51.215Z,12.40
2017-07-25T12:55:20.287Z,14.10
2017-07-25T12:57:49.343Z,12.80
2017-07-25T13:00:18.435Z,11.70
2017-07-25T13:06:01.141Z,12.27
2017-07-25T13:08:30.183Z,13.87
2017-07-25T13:10:59.255Z,15.80
2017-07-25T13:13:29.080Z,15.60
2017-07-25T13:15:58.143Z,13.30
2017-07-25T13:18:27.187Z,14.30
2017-07-25T13:20:56.239Z,13.37
2017-07-25T13:23:25.309Z,12.20
2017-07-25T13:25:55.093Z,12.83
2017-07-25T13:28:24.204Z,10.57
2017-07-25T13:30:53.279Z,11.27
2017-07-25T13:33:22.340Z,12.00
2017-07-25T13:35:52.175Z,9.70
2017-07-25T13:38:21.254Z,11.63
2017-07-25T13:40:50.309Z,10.40
2017-07-25T13:43:19.400Z,10.53
2017-07-25T13:45:48.463Z,9.53
2017-07-25T13:48:17.530Z,9.90
2017-07-25T13:50:47.343Z,10.67
2017-07-25T13:53:17.195Z,9.40
2017-07-25T13:55:46.243Z,9.93
2017-07-25T13:58:15.361Z,9.30
2017-07-25T14:00:45.176Z,9.77
2017-07-25T14:03:14.229Z,9.13
2017-07-25T14:05:43.322Z,10.30
2017-07-25T14:08:12.404Z,11.13
2017-07-25T14:10:41.453Z,11.47
2017-07-25T14:13:10.552Z,11.30
2017-07-25T14:15:40.361Z,13.30
2017-07-25T14:18:09.451Z,13.57
2017-07-25T14:20:38.522Z,13.00
2017-07-25T14:23:08.901Z,13.10
2017-07-25T14:25:39.253Z,13.70
2017-07-25T14:28:08.327Z,14.50
2017-07-25T14:30:37.381Z,15.90
2017-07-25T14:33:07.282Z,17.23
2017-07-25T14:35:36.299Z,15.80
2017-07-25T14:38:05.377Z,16.47
2017-07-25T14:40:35.230Z,14.60
2017-07-25T14:43:04.295Z,16.20
2017-07-25T14:45:34.141Z,16.03
2017-07-25T14:48:03.212Z,16.67
2017-07-25T14:50:33.042Z,16.63
2017-07-25T14:53:02.143Z,15.20
2017-07-25T14:55:31.212Z,15.30
2017-07-25T14:58:01.031Z,15.10
2017-07-25T15:00:30.855Z,12.80
2017-07-25T15:02:59.914Z,14.07
2017-07-25T15:05:28.971Z,13.00
2017-07-25T15:07:58.039Z,13.87
2017-07-25T15:10:27.121Z,15.00
2017-07-25T15:12:56.942Z,14.80
2017-07-25T15:15:26.616Z,12.53
2017-07-25T15:17:56.697Z,12.73
2017-07-25T15:20:25.824Z,12.90
2017-07-25T15:22:54.881Z,13.00
2017-07-25T15:25:23.931Z,13.30
2017-07-25T15:27:53.760Z,13.87
2017-07-25T15:30:23.586Z,14.60
2017-07-25T15:32:52.660Z,15.17
2017-07-25T15:35:22.514Z,15.07
2017-07-25T15:37:51.683Z,15.90
2017-07-25T15:40:20.735Z,16.60
2017-07-25T15:42:49.804Z,18.10
2017-07-25T15:45:18.872Z,17.73
2017-07-25T15:47:48.018Z,17.93
2017-07-25T15:50:17.103Z,17.23
2017-07-25T15:52:46.167Z,14.10
2017-07-25T15:55:15.303Z,11.67
2017-07-25T15:57:44.440Z,11.73
2017-07-25T16:00:14.240Z,12.67
2017-07-25T16:02:44.223Z,13.20
2017-07-25T16:05:13.354Z,15.00
2017-07-25T16:07:42.448Z,14.73
2017-07-25T16:10:11.582Z,14.73
2017-07-25T16:12:40.686Z,12.13
2017-07-25T16:15:09.749Z,13.20
2017-07-25T16:17:38.977Z,13.50
2017-07-25T16:20:08.064Z,11.77
2017-07-25T16:22:37.924Z,11.90
2017-07-25T16:25:07.021Z,11.57
2017-07-25T16:27:36.118Z,11.07
2017-07-25T16:30:05.217Z,11.07
2017-07-25T16:32:34.272Z,11.27
2017-07-25T16:35:03.339Z,12.00
2017-07-25T16:37:32.422Z,12.23
2017-07-25T16:40:01.501Z,11.40
2017-07-25T16:42:30.572Z,10.63
2017-07-25T16:44:59.640Z,9.00
2017-07-25T16:47:28.707Z,5.30
2017-07-25T16:49:58.513Z,6.10
2017-07-25T16:52:27.556Z,6.80
2017-07-25T16:54:56.624Z,7.00
2017-07-25T16:57:25.683Z,6.87
2017-07-25T16:59:54.753Z,7.40
2017-07-25T17:02:23.836Z,8.10
2017-07-25T17:04:52.861Z,8.20
2017-07-25T17:07:21.938Z,7.97
2017-07-25T17:09:50.985Z,7.20
2017-07-25T17:12:20.065Z,8.70
2017-07-25T17:14:49.095Z,7.80
2017-07-25T17:17:18.187Z,8.60
2017-07-25T17:19:47.228Z,9.07
2017-07-25T17:22:16.293Z,10.07
2017-07-25T17:24:45.341Z,9.20
2017-07-25T17:27:15.172Z,9.40
2017-07-25T17:29:44.251Z,9.07
2017-07-25T17:32:14.077Z,9.50
2017-07-25T17:34:43.148Z,9.20
2017-07-25T17:37:12.235Z,9.33
2017-07-25T17:39:41.323Z,11.40
2017-07-25T17:42:10.381Z,11.73
2017-07-25T17:44:39.460Z,12.60
2017-07-25T17:47:08.561Z,14.30
2017-07-25T17:49:37.615Z,14.60
2017-07-25T17:52:06.701Z,14.23
2017-07-25T17:54:35.785Z,14.80
2017-07-25T17:57:05.007Z,16.50
2017-07-25T17:59:34.256Z,15.90
2017-07-25T18:02:03.331Z,18.30
2017-07-25T18:04:32.575Z,16.40
2017-07-25T18:07:01.656Z,16.77
2017-07-25T18:09:30.729Z,16.50
2017-07-25T18:12:00.541Z,13.27
2017-07-25T18:14:29.619Z,14.73
2017-07-25T18:16:58.697Z,12.60
2017-07-25T18:19:28.522Z,13.83
2017-07-25T18:21:58.367Z,12.27
2017-07-25T18:24:27.436Z,12.93
2017-07-25T18:26:57.264Z,13.60
2017-07-25T18:29:26.396Z,11.97
2017-07-25T18:31:55.441Z,13.40
2017-07-25T18:34:24.548Z,13.00
2017-07-25T18:36:53.602Z,13.20
2017-07-25T18:39:22.704Z,13.17
2017-07-25T18:41:51.787Z,14.10
2017-07-25T18:44:20.852Z,14.73
2017-07-25T18:46:49.918Z,16.30
2017-07-25T18:49:18.998Z,15.70
2017-07-25T18:51:48.068Z,17.10
2017-07-25T18:54:17.133Z,17.23
2017-07-25T18:56:46.420Z,17.47
2017-07-25T18:59:15.517Z,16.50
2017-07-25T19:01:44.596Z,17.13
2017-07-25T19:04:13.697Z,16.40
2017-07-25T19:06:42.760Z,16.50
2017-07-25T19:09:12.887Z,16.73
2017-07-25T19:11:41.928Z,16.53
2017-07-25T19:14:11.023Z,15.90
2017-07-25T19:16:40.429Z,16.40
2017-07-25T19:19:10.441Z,16.10
2017-07-25T19:21:39.674Z,17.03
2017-07-25T19:24:08.827Z,15.60
2017-07-25T19:26:37.959Z,15.30
2017-07-25T19:29:07.396Z,16.10
2017-07-25T19:31:36.536Z,16.83
2017-07-25T19:34:05.585Z,17.30
2017-07-25T19:36:35.033Z,15.73
2017-07-25T19:39:04.219Z,14.77
2017-07-25T19:41:34.598Z,14.77
2017-07-25T19:44:04.597Z,14.50
2017-07-25T19:46:33.729Z,16.00
2017-07-25T19:49:03.226Z,14.60
2017-07-25T19:51:32.369Z,16.53
2017-07-25T19:54:02.274Z,13.83
2017-07-25T19:56:31.318Z,15.37
2017-07-25T19:59:00.572Z,14.20
2017-07-25T20:01:29.708Z,14.47
2017-07-25T20:03:58.822Z,13.80
2017-07-25T20:06:28.658Z,12.90
2017-07-25T20:08:57.727Z,13.47
2017-07-25T20:11:27.576Z,14.30
2017-07-25T20:13:56.617Z,14.57
2017-07-25T20:16:25.719Z,13.10
2017-07-25T20:18:54.781Z,14.17
2017-07-25T20:21:23.844Z,13.30
2017-07-25T20:23:53.136Z,13.33
2017-07-25T20:26:22.203Z,12.27
2017-07-25T20:28:52.052Z,12.27
2017-07-25T20:31:21.150Z,11.03
2017-07-25T20:33:50.221Z,10.73
2017-07-25T20:36:20.078Z,11.17
2017-07-25T20:38:49.166Z,10.67
2017-07-25T20:41:18.258Z,10.57
2017-07-25T20:43:47.326Z,10.97
2017-07-25T20:46:17.188Z,10.77
2017-07-25T20:48:46.325Z,10.53
2017-07-25T20:51:15.635Z,9.50
2017-07-25T20:53:45.452Z,9.10
2017-07-25T20:56:15.259Z,10.20
2017-07-25T20:58:45.101Z,8.67
2017-07-25T21:01:14.145Z,9.00
2017-07-25T21:03:43.224Z,9.20
2017-07-25T21:06:12.312Z,8.70
2017-07-25T21:08:43.012Z,8.20
2017-07-25T21:11:12.078Z,9.80
2017-07-25T21:13:41.887Z,8.30
2017-07-25T21:16:11.748Z,8.27
2017-07-25T21:18:40.801Z,8.63
2017-07-25T21:21:11.621Z,8.10
2017-07-25T21:23:40.712Z,8.90
2017-07-25T21:26:09.855Z,8.27
2017-07-25T21:28:38.905Z,8.60
2017-07-25T21:31:08.003Z,8.00
2017-07-25T21:33:37.018Z,6.63
2017-07-25T21:36:07.239Z,7.77
2017-07-25T21:38:37.055Z,8.13
2017-07-25T21:41:06.892Z,8.50
2017-07-25T21:43:35.925Z,8.70
2017-07-25T21:46:05.012Z,9.47
2017-07-25T21:48:34.068Z,8.77
2017-07-25T21:51:03.136Z,10.60
2017-07-25T21:53:32.999Z,11.83
2017-07-25T21:56:02.041Z,13.00
2017-07-25T21:58:31.877Z,12.50
2017-07-25T22:01:31.446Z,12.63
2017-07-25T22:04:18.431Z,13.97
2017-07-25T22:06:47.504Z,16.00
2017-07-25T22:09:16.599Z,18.40
2017-07-25T22:11:45.675Z,16.70
2017-07-25T22:14:15.783Z,16.37
2017-07-25T22:16:44.842Z,18.07
2017-07-25T22:19:14.047Z,22.17
2017-07-25T22:21:43.114Z,20.30
2017-07-25T22:24:12.195Z,21.50
2017-07-25T22:26:41.255Z,23.30
2017-07-25T22:29:10.516Z,24.90
2017-07-25T22:31:39.559Z,24.30
2017-07-25T22:34:09.469Z,23.60
2017-07-25T22:36:39.322Z,21.93
2017-07-25T22:39:08.391Z,23.10
2017-07-25T22:41:38.264Z,24.13
2017-07-25T22:44:07.343Z,23.70
2017-07-25T22:46:36.392Z,24.07
2017-07-25T22:49:06.272Z,25.50
2017-07-25T22:51:35.320Z,24.23
2017-07-25T22:54:04.400Z,26.10
2017-07-25T22:56:33.472Z,26.53
2017-07-25T22:59:02.547Z,27.10
2017-07-25T23:01:31.615Z,27.47
2017-07-25T23:04:00.696Z,24.73
2017-07-25T23:06:29.748Z,25.87
2017-07-25T23:08:58.800Z,26.00
2017-07-25T23:11:27.855Z,23.73
2017-07-25T23:13:57.697Z,26.37
2017-07-25T23:16:26.753Z,24.00
2017-07-25T23:18:55.800Z,23.93
2017-07-25T23:21:24.892Z,23.63
2017-07-25T23:23:53.950Z,25.90
2017-07-25T23:26:23.807Z,25.90
2017-07-25T23:28:52.855Z,26.83
2017-07-25T23:31:22.686Z,26.50
2017-07-25T23:33:51.758Z,26.13
2017-07-25T23:36:20.981Z,29.27
2017-07-25T23:38:50.047Z,29.03
2017-07-25T23:41:19.097Z,28.43
2017-07-25T23:43:48.167Z,29.13
2017-07-25T23:46:17.215Z,27.57
2017-07-25T23:48:46.275Z,28.30
2017-07-25T23:51:15.363Z,28.67
2017-07-25T23:53:44.418Z,28.83
2017-07-25T23:56:14.499Z,26.13
2017-07-25T23:58:43.544Z,28.57
